sensor_id;sensor_type;location;lat;lon;timestamp;P1;durP1;ratioP1;P2;durP2;ratioP2
7426;SDS011;3755;59.316;18.092;2022-09-28T00:01:33;16.85;;;12.85;;
7426;SDS011;3755;59.316;18.092;2022-09-28T00:04:05;17.85;;;12.30;;
7426;SDS011;3755;59.316;18.092;2022-09-28T00:06:46;27.38;;;12.80;;
7426;SDS011;3755;59.316;18.092;2022-09-28T00:09:16;13.88;;;11.13;;
7426;SDS011;3755;59.316;18.092;2022-09-28T00:11:44;13.63;;;11.32;;
7426;SDS011;3755;59.316;18.092;2022-09-28T00:14:13;14.65;;;11.23;;
7426;SDS011;3755;59.316;18.092;2022-09-28T00:16:42;17.00;;;12.90;;
7426;SDS011;3755;59.316;18.092;2022-09-28T00:19:12;15.40;;;11.57;;
7426;SDS011;3755;59.316;18.092;2022-09-28T00:21:47;16.95;;;11.95;;
7426;SDS011;3755;59.316;18.092;2022-09-28T00:24:34;14.25;;;11.38;;
7426;SDS011;3755;59.316;18.092;2022-09-28T00:27:01;18.35;;;12.60;;
7426;SDS011;3755;59.316;18.092;2022-09-28T00:29:31;16.45;;;12.00;;
7426;SDS011;3755;59.316;18.092;2022-09-28T00:32:02;15.63;;;11.00;;
7426;SDS011;3755;59.316;18.092;2022-09-28T00:34:32;20.67;;;11.88;;
7426;SDS011;3755;59.316;18.092;2022-09-28T00:37:16;17.60;;;12.13;;
7426;SDS011;3755;59.316;18.092;2022-09-28T00:42:45;14.98;;;11.82;;
7426;SDS011;3755;59.316;18.092;2022-09-28T00:45:20;15.80;;;10.88;;
7426;SDS011;3755;59.316;18.092;2022-09-28T00:47:51;13.23;;;10.48;;
7426;SDS011;3755;59.316;18.092;2022-09-28T00:50:23;14.80;;;9.40;;
7426;SDS011;3755;59.316;18.092;2022-09-28T00:52:56;13.68;;;9.50;;
7426;SDS011;3755;59.316;18.092;2022-09-28T00:55:51;13.40;;;9.27;;
7426;SDS011;3755;59.316;18.092;2022-09-28T00:58:22;12.40;;;8.55;;
7426;SDS011;3755;59.316;18.092;2022-09-28T01:00:55;10.30;;;8.90;;
7426;SDS011;3755;59.316;18.092;2022-09-28T01:03:25;10.93;;;8.90;;
7426;SDS011;3755;59.316;18.092;2022-09-28T01:06:08;13.43;;;8.23;;
7426;SDS011;3755;59.316;18.092;2022-09-28T01:08:44;15.90;;;8.05;;
7426;SDS011;3755;59.316;18.092;2022-09-28T01:11:29;13.85;;;7.32;;
7426;SDS011;3755;59.316;18.092;2022-09-28T01:14:05;9.05;;;6.57;;
7426;SDS011;3755;59.316;18.092;2022-09-28T01:16:53;8.55;;;6.18;;
7426;SDS011;3755;59.316;18.092;2022-09-28T01:22:45;10.77;;;6.55;;
7426;SDS011;3755;59.316;18.092;2022-09-28T01:25:36;11.73;;;6.00;;
7426;SDS011;3755;59.316;18.092;2022-09-28T01:28:15;11.13;;;6.30;;
7426;SDS011;3755;59.316;18.092;2022-09-28T01:30:50;6.53;;;5.00;;
7426;SDS011;3755;59.316;18.092;2022-09-28T01:33:38;11.23;;;5.30;;
7426;SDS011;3755;59.316;18.092;2022-09-28T01:36:26;9.85;;;5.10;;
7426;SDS011;3755;59.316;18.092;2022-09-28T01:38:58;8.02;;;5.00;;
7426;SDS011;3755;59.316;18.092;2022-09-28T01:41:29;7.82;;;4.82;;
7426;SDS011;3755;59.316;18.092;2022-09-28T01:44:15;10.05;;;4.80;;
7426;SDS011;3755;59.316;18.092;2022-09-28T01:46:46;7.07;;;4.35;;
7426;SDS011;3755;59.316;18.092;2022-09-28T01:49:31;6.72;;;4.13;;
7426;SDS011;3755;59.316;18.092;2022-09-28T01:52:09;9.43;;;4.40;;
7426;SDS011;3755;59.316;18.092;2022-09-28T01:54:44;12.55;;;5.63;;
7426;SDS011;3755;59.316;18.092;2022-09-28T01:57:32;5.95;;;4.47;;
7426;SDS011;3755;59.316;18.092;2022-09-28T02:00:07;8.05;;;5.00;;
7426;SDS011;3755;59.316;18.092;2022-09-28T02:02:42;12.70;;;4.82;;
7426;SDS011;3755;59.316;18.092;2022-09-28T02:05:19;10.50;;;4.80;;
7426;SDS011;3755;59.316;18.092;2022-09-28T02:08:03;7.65;;;4.70;;
7426;SDS011;3755;59.316;18.092;2022-09-28T02:10:37;11.07;;;4.88;;
7426;SDS011;3755;59.316;18.092;2022-09-28T02:13:11;6.63;;;4.05;;
7426;SDS011;3755;59.316;18.092;2022-09-28T02:21:37;7.03;;;4.35;;
7426;SDS011;3755;59.316;18.092;2022-09-28T02:24:16;8.15;;;4.30;;
7426;SDS011;3755;59.316;18.092;2022-09-28T02:26:49;6.93;;;4.20;;
7426;SDS011;3755;59.316;18.092;2022-09-28T02:29:20;8.73;;;4.50;;
7426;SDS011;3755;59.316;18.092;2022-09-28T02:31:49;8.20;;;4.10;;
7426;SDS011;3755;59.316;18.092;2022-09-28T02:34:19;8.40;;;4.30;;
7426;SDS011;3755;59.316;18.092;2022-09-28T02:36:54;7.82;;;4.55;;
7426;SDS011;3755;59.316;18.092;2022-09-28T02:39:26;7.40;;;4.18;;
7426;SDS011;3755;59.316;18.092;2022-09-28T02:42:00;8.65;;;4.50;;
7426;SDS011;3755;59.316;18.092;2022-09-28T02:47:41;9.88;;;4.50;;
7426;SDS011;3755;59.316;18.092;2022-09-28T02:50:34;9.32;;;5.00;;
7426;SDS011;3755;59.316;18.092;2022-09-28T02:53:30;9.90;;;4.38;;
7426;SDS011;3755;59.316;18.092;2022-09-28T02:56:31;8.13;;;4.35;;
7426;SDS011;3755;59.316;18.092;2022-09-28T02:59:11;12.05;;;5.43;;
7426;SDS011;3755;59.316;18.092;2022-09-28T03:02:05;6.53;;;3.90;;
7426;SDS011;3755;59.316;18.092;2022-09-28T03:04:48;9.00;;;4.40;;
7426;SDS011;3755;59.316;18.092;2022-09-28T03:07:31;10.63;;;4.50;;
7426;SDS011;3755;59.316;18.092;2022-09-28T03:10:04;9.48;;;4.32;;
7426;SDS011;3755;59.316;18.092;2022-09-28T03:12:40;6.97;;;4.28;;
7426;SDS011;3755;59.316;18.092;2022-09-28T03:15:24;9.20;;;3.90;;
7426;SDS011;3755;59.316;18.092;2022-09-28T03:17:56;7.80;;;3.92;;
7426;SDS011;3755;59.316;18.092;2022-09-28T03:20:25;10.07;;;4.18;;
7426;SDS011;3755;59.316;18.092;2022-09-28T03:25:52;9.07;;;4.60;;
7426;SDS011;3755;59.316;18.092;2022-09-28T03:28:33;8.55;;;4.30;;
7426;SDS011;3755;59.316;18.092;2022-09-28T03:31:03;10.15;;;4.03;;
7426;SDS011;3755;59.316;18.092;2022-09-28T03:33:45;9.77;;;4.57;;
7426;SDS011;3755;59.316;18.092;2022-09-28T03:36:15;6.45;;;3.70;;
7426;SDS011;3755;59.316;18.092;2022-09-28T03:38:47;8.63;;;4.82;;
7426;SDS011;3755;59.316;18.092;2022-09-28T03:41:20;7.60;;;4.45;;
7426;SDS011;3755;59.316;18.092;2022-09-28T03:43:49;9.38;;;4.38;;
7426;SDS011;3755;59.316;18.092;2022-09-28T03:46:18;14.73;;;4.57;;
7426;SDS011;3755;59.316;18.092;2022-09-28T03:48:49;13.55;;;4.10;;
7426;SDS011;3755;59.316;18.092;2022-09-28T03:51:30;7.80;;;3.58;;
7426;SDS011;3755;59.316;18.092;2022-09-28T03:57:15;7.60;;;4.30;;
7426;SDS011;3755;59.316;18.092;2022-09-28T03:59:57;5.75;;;3.88;;
7426;SDS011;3755;59.316;18.092;2022-09-28T04:02:26;9.02;;;3.97;;
7426;SDS011;3755;59.316;18.092;2022-09-28T04:04:57;7.15;;;4.00;;
7426;SDS011;3755;59.316;18.092;2022-09-28T04:07:24;5.32;;;3.70;;
7426;SDS011;3755;59.316;18.092;2022-09-28T04:09:54;11.40;;;3.75;;
7426;SDS011;3755;59.316;18.092;2022-09-28T04:12:26;5.70;;;3.28;;
7426;SDS011;3755;59.316;18.092;2022-09-28T04:15:07;7.80;;;3.55;;
7426;SDS011;3755;59.316;18.092;2022-09-28T04:17:48;7.70;;;3.42;;
7426;SDS011;3755;59.316;18.092;2022-09-28T04:20:31;7.63;;;3.45;;
7426;SDS011;3755;59.316;18.092;2022-09-28T04:22:58;7.88;;;3.65;;
7426;SDS011;3755;59.316;18.092;2022-09-28T04:28:14;8.85;;;3.58;;
7426;SDS011;3755;59.316;18.092;2022-09-28T04:31:16;9.07;;;2.88;;
7426;SDS011;3755;59.316;18.092;2022-09-28T04:33:58;6.82;;;3.00;;
7426;SDS011;3755;59.316;18.092;2022-09-28T04:36:40;7.10;;;2.90;;
7426;SDS011;3755;59.316;18.092;2022-09-28T04:39:23;7.20;;;3.25;;
7426;SDS011;3755;59.316;18.092;2022-09-28T04:42:13;4.95;;;3.03;;
7426;SDS011;3755;59.316;18.092;2022-09-28T04:44:51;8.35;;;3.75;;
7426;SDS011;3755;59.316;18.092;2022-09-28T04:47:33;4.90;;;2.80;;
7426;SDS011;3755;59.316;18.092;2022-09-28T04:50:14;7.07;;;3.55;;
7426;SDS011;3755;59.316;18.092;2022-09-28T04:52:43;7.25;;;3.05;;
7426;SDS011;3755;59.316;18.092;2022-09-28T04:55:24;6.63;;;3.25;;
7426;SDS011;3755;59.316;18.092;2022-09-28T05:01:25;6.90;;;2.72;;
7426;SDS011;3755;59.316;18.092;2022-09-28T05:03:59;6.57;;;2.90;;
7426;SDS011;3755;59.316;18.092;2022-09-28T05:06:41;6.13;;;3.15;;
7426;SDS011;3755;59.316;18.092;2022-09-28T05:09:12;6.60;;;2.60;;
7426;SDS011;3755;59.316;18.092;2022-09-28T05:12:01;8.60;;;2.95;;
7426;SDS011;3755;59.316;18.092;2022-09-28T05:14:44;5.13;;;2.63;;
7426;SDS011;3755;59.316;18.092;2022-09-28T05:39:45;9.18;;;3.40;;
7426;SDS011;3755;59.316;18.092;2022-09-28T05:42:28;5.10;;;3.03;;
7426;SDS011;3755;59.316;18.092;2022-09-28T05:45:15;7.03;;;2.83;;
7426;SDS011;3755;59.316;18.092;2022-09-28T05:48:23;7.32;;;3.38;;
7426;SDS011;3755;59.316;18.092;2022-09-28T05:51:23;6.22;;;3.17;;
7426;SDS011;3755;59.316;18.092;2022-09-28T05:54:16;7.75;;;3.28;;
7426;SDS011;3755;59.316;18.092;2022-09-28T05:57:34;6.65;;;2.88;;
7426;SDS011;3755;59.316;18.092;2022-09-28T06:00:17;5.95;;;2.75;;
7426;SDS011;3755;59.316;18.092;2022-09-28T06:03:00;5.95;;;2.22;;
7426;SDS011;3755;59.316;18.092;2022-09-28T06:05:33;4.07;;;2.90;;
7426;SDS011;3755;59.316;18.092;2022-09-28T06:08:29;4.47;;;2.65;;
7426;SDS011;3755;59.316;18.092;2022-09-28T06:11:16;4.72;;;2.60;;
7426;SDS011;3755;59.316;18.092;2022-09-28T06:17:12;4.68;;;2.83;;
7426;SDS011;3755;59.316;18.092;2022-09-28T06:19:39;6.97;;;2.97;;
7426;SDS011;3755;59.316;18.092;2022-09-28T06:22:20;4.90;;;2.78;;
7426;SDS011;3755;59.316;18.092;2022-09-28T06:25:05;4.75;;;1.92;;
7426;SDS011;3755;59.316;18.092;2022-09-28T06:27:34;5.78;;;2.33;;
7426;SDS011;3755;59.316;18.092;2022-09-28T06:30:15;3.95;;;2.25;;
7426;SDS011;3755;59.316;18.092;2022-09-28T06:33:28;5.85;;;2.60;;
7426;SDS011;3755;59.316;18.092;2022-09-28T06:36:09;5.40;;;2.60;;
7426;SDS011;3755;59.316;18.092;2022-09-28T06:38:37;4.93;;;2.10;;
7426;SDS011;3755;59.316;18.092;2022-09-28T06:41:13;6.20;;;2.67;;
7426;SDS011;3755;59.316;18.092;2022-09-28T06:43:49;2.88;;;2.05;;
7426;SDS011;3755;59.316;18.092;2022-09-28T06:46:30;4.03;;;2.42;;
7426;SDS011;3755;59.316;18.092;2022-09-28T06:49:03;5.50;;;2.13;;
7426;SDS011;3755;59.316;18.092;2022-09-28T06:51:45;9.23;;;2.60;;
7426;SDS011;3755;59.316;18.092;2022-09-28T06:54:26;4.57;;;2.78;;
7426;SDS011;3755;59.316;18.092;2022-09-28T06:57:07;5.47;;;2.15;;
7426;SDS011;3755;59.316;18.092;2022-09-28T06:59:35;7.35;;;2.72;;
7426;SDS011;3755;59.316;18.092;2022-09-28T07:02:16;5.90;;;2.70;;
7426;SDS011;3755;59.316;18.092;2022-09-28T07:04:54;8.88;;;2.60;;
7426;SDS011;3755;59.316;18.092;2022-09-28T07:07:38;3.85;;;2.35;;
7426;SDS011;3755;59.316;18.092;2022-09-28T07:10:21;7.15;;;2.90;;
7426;SDS011;3755;59.316;18.092;2022-09-28T07:13:05;4.80;;;2.47;;
7426;SDS011;3755;59.316;18.092;2022-09-28T07:15:47;4.35;;;2.10;;
7426;SDS011;3755;59.316;18.092;2022-09-28T07:18:14;3.40;;;2.10;;
7426;SDS011;3755;59.316;18.092;2022-09-28T07:20:48;7.78;;;2.30;;
7426;SDS011;3755;59.316;18.092;2022-09-28T07:23:18;4.75;;;1.90;;
7426;SDS011;3755;59.316;18.092;2022-09-28T07:26:02;2.88;;;2.00;;
7426;SDS011;3755;59.316;18.092;2022-09-28T07:29:09;5.55;;;1.70;;
7426;SDS011;3755;59.316;18.092;2022-09-28T07:31:53;3.50;;;1.83;;
7426;SDS011;3755;59.316;18.092;2022-09-28T07:34:40;4.95;;;1.88;;
7426;SDS011;3755;59.316;18.092;2022-09-28T07:37:18;4.45;;;2.13;;
7426;SDS011;3755;59.316;18.092;2022-09-28T07:39:51;3.00;;;1.90;;
7426;SDS011;3755;59.316;18.092;2022-09-28T07:42:35;4.18;;;1.90;;
7426;SDS011;3755;59.316;18.092;2022-09-28T07:45:18;5.57;;;2.10;;
7426;SDS011;3755;59.316;18.092;2022-09-28T07:47:53;2.00;;;1.70;;
7426;SDS011;3755;59.316;18.092;2022-09-28T07:50:28;1.63;;;1.40;;
7426;SDS011;3755;59.316;18.092;2022-09-28T08:05:07;6.25;;;1.90;;
7426;SDS011;3755;59.316;18.092;2022-09-28T08:07:58;4.28;;;1.63;;
7426;SDS011;3755;59.316;18.092;2022-09-28T08:10:49;6.30;;;2.28;;
7426;SDS011;3755;59.316;18.092;2022-09-28T08:13:49;2.75;;;1.30;;
7426;SDS011;3755;59.316;18.092;2022-09-28T08:17:15;5.55;;;1.58;;
7426;SDS011;3755;59.316;18.092;2022-09-28T08:20:20;4.57;;;2.20;;
7426;SDS011;3755;59.316;18.092;2022-09-28T08:23:25;3.05;;;1.73;;
7426;SDS011;3755;59.316;18.092;2022-09-28T08:26:09;3.42;;;1.33;;
7426;SDS011;3755;59.316;18.092;2022-09-28T08:31:52;3.63;;;1.40;;
7426;SDS011;3755;59.316;18.092;2022-09-28T08:34:33;3.13;;;1.75;;
7426;SDS011;3755;59.316;18.092;2022-09-28T08:44:11;3.20;;;1.58;;
7426;SDS011;3755;59.316;18.092;2022-09-28T08:46:57;4.72;;;1.77;;
7426;SDS011;3755;59.316;18.092;2022-09-28T08:49:47;2.83;;;1.80;;
7426;SDS011;3755;59.316;18.092;2022-09-28T08:52:30;2.22;;;1.50;;
7426;SDS011;3755;59.316;18.092;2022-09-28T08:55:17;5.47;;;1.80;;
7426;SDS011;3755;59.316;18.092;2022-09-28T09:11:21;4.55;;;1.63;;
7426;SDS011;3755;59.316;18.092;2022-09-28T09:14:25;4.88;;;1.77;;
7426;SDS011;3755;59.316;18.092;2022-09-28T09:17:28;3.78;;;1.67;;
7426;SDS011;3755;59.316;18.092;2022-09-28T09:20:14;6.00;;;1.70;;
7426;SDS011;3755;59.316;18.092;2022-09-28T09:23:04;7.10;;;1.88;;
7426;SDS011;3755;59.316;18.092;2022-09-28T09:40:07;3.20;;;1.48;;
7426;SDS011;3755;59.316;18.092;2022-09-28T09:46:47;4.03;;;1.90;;
7426;SDS011;3755;59.316;18.092;2022-09-28T09:49:53;4.28;;;1.80;;
7426;SDS011;3755;59.316;18.092;2022-09-28T09:52:26;3.22;;;1.65;;
7426;SDS011;3755;59.316;18.092;2022-09-28T09:55:12;4.85;;;1.60;;
7426;SDS011;3755;59.316;18.092;2022-09-28T09:58:08;3.13;;;1.80;;
7426;SDS011;3755;59.316;18.092;2022-09-28T10:00:57;4.90;;;2.25;;
7426;SDS011;3755;59.316;18.092;2022-09-28T10:03:47;4.28;;;1.63;;
7426;SDS011;3755;59.316;18.092;2022-09-28T10:06:30;4.43;;;1.92;;
7426;SDS011;3755;59.316;18.092;2022-09-28T10:09:19;2.38;;;1.63;;
7426;SDS011;3755;59.316;18.092;2022-09-28T10:12:28;7.25;;;2.25;;
7426;SDS011;3755;59.316;18.092;2022-09-28T10:15:17;2.30;;;1.33;;
7426;SDS011;3755;59.316;18.092;2022-09-28T10:18:01;5.55;;;1.77;;
7426;SDS011;3755;59.316;18.092;2022-09-28T10:20:45;3.10;;;1.58;;
7426;SDS011;3755;59.316;18.092;2022-09-28T10:23:17;2.83;;;1.40;;
7426;SDS011;3755;59.316;18.092;2022-09-28T10:26:04;4.75;;;1.83;;
7426;SDS011;3755;59.316;18.092;2022-09-28T10:28:56;3.30;;;1.83;;
7426;SDS011;3755;59.316;18.092;2022-09-28T10:31:42;2.97;;;1.90;;
7426;SDS011;3755;59.316;18.092;2022-09-28T10:34:11;4.00;;;1.70;;
7426;SDS011;3755;59.316;18.092;2022-09-28T10:36:46;1.75;;;1.42;;
7426;SDS011;3755;59.316;18.092;2022-09-28T10:39:24;1.88;;;1.40;;
7426;SDS011;3755;59.316;18.092;2022-09-28T10:42:10;2.45;;;1.63;;
7426;SDS011;3755;59.316;18.092;2022-09-28T10:44:59;3.55;;;1.73;;
7426;SDS011;3755;59.316;18.092;2022-09-28T10:47:30;3.38;;;1.55;;
7426;SDS011;3755;59.316;18.092;2022-09-28T10:50:17;2.75;;;1.77;;
7426;SDS011;3755;59.316;18.092;2022-09-28T10:53:11;4.93;;;1.75;;
7426;SDS011;3755;59.316;18.092;2022-09-28T10:55:58;3.75;;;1.83;;
7426;SDS011;3755;59.316;18.092;2022-09-28T10:58:37;1.98;;;1.50;;
7426;SDS011;3755;59.316;18.092;2022-09-28T11:01:16;2.03;;;1.50;;
7426;SDS011;3755;59.316;18.092;2022-09-28T11:03:48;2.47;;;1.90;;
7426;SDS011;3755;59.316;18.092;2022-09-28T11:06:22;3.08;;;1.70;;
7426;SDS011;3755;59.316;18.092;2022-09-28T11:08:52;2.95;;;1.48;;
7426;SDS011;3755;59.316;18.092;2022-09-28T11:11:22;5.10;;;1.70;;
7426;SDS011;3755;59.316;18.092;2022-09-28T11:13:50;3.83;;;1.60;;
7426;SDS011;3755;59.316;18.092;2022-09-28T11:16:35;2.35;;;1.38;;
7426;SDS011;3755;59.316;18.092;2022-09-28T11:19:04;2.95;;;1.48;;
7426;SDS011;3755;59.316;18.092;2022-09-28T11:21:49;4.32;;;1.75;;
7426;SDS011;3755;59.316;18.092;2022-09-28T11:24:17;3.13;;;1.20;;
7426;SDS011;3755;59.316;18.092;2022-09-28T11:26:47;3.78;;;1.73;;
7426;SDS011;3755;59.316;18.092;2022-09-28T11:29:21;3.15;;;1.60;;
7426;SDS011;3755;59.316;18.092;2022-09-28T11:31:53;2.40;;;1.55;;
7426;SDS011;3755;59.316;18.092;2022-09-28T11:34:28;1.90;;;1.25;;
7426;SDS011;3755;59.316;18.092;2022-09-28T11:37:14;6.15;;;1.90;;
7426;SDS011;3755;59.316;18.092;2022-09-28T11:40:12;3.75;;;1.83;;
7426;SDS011;3755;59.316;18.092;2022-09-28T11:43:06;4.18;;;1.50;;
7426;SDS011;3755;59.316;18.092;2022-09-28T11:45:45;2.15;;;1.33;;
7426;SDS011;3755;59.316;18.092;2022-09-28T11:48:38;3.65;;;1.30;;
7426;SDS011;3755;59.316;18.092;2022-09-28T11:51:23;4.68;;;1.92;;
7426;SDS011;3755;59.316;18.092;2022-09-28T11:54:04;3.95;;;2.03;;
7426;SDS011;3755;59.316;18.092;2022-09-28T11:56:39;3.55;;;1.83;;
7426;SDS011;3755;59.316;18.092;2022-09-28T11:59:11;1.65;;;1.27;;
7426;SDS011;3755;59.316;18.092;2022-09-28T12:01:47;2.78;;;1.40;;
7426;SDS011;3755;59.316;18.092;2022-09-28T12:04:36;2.42;;;1.58;;
7426;SDS011;3755;59.316;18.092;2022-09-28T12:07:38;2.60;;;1.45;;
7426;SDS011;3755;59.316;18.092;2022-09-28T12:10:13;2.20;;;1.00;;
7426;SDS011;3755;59.316;18.092;2022-09-28T12:12:46;1.90;;;1.40;;
7426;SDS011;3755;59.316;18.092;2022-09-28T12:15:49;4.20;;;1.67;;
7426;SDS011;3755;59.316;18.092;2022-09-28T12:18:36;4.38;;;1.58;;
7426;SDS011;3755;59.316;18.092;2022-09-28T12:24:32;2.92;;;1.38;;
7426;SDS011;3755;59.316;18.092;2022-09-28T12:27:19;2.00;;;1.40;;
7426;SDS011;3755;59.316;18.092;2022-09-28T12:29:56;2.33;;;1.40;;
7426;SDS011;3755;59.316;18.092;2022-09-28T12:32:43;3.47;;;1.58;;
7426;SDS011;3755;59.316;18.092;2022-09-28T12:35:42;5.55;;;1.50;;
7426;SDS011;3755;59.316;18.092;2022-09-28T12:45:00;1.55;;;1.30;;
7426;SDS011;3755;59.316;18.092;2022-09-28T12:48:08;1.45;;;1.20;;
7426;SDS011;3755;59.316;18.092;2022-09-28T12:50:59;1.95;;;1.33;;
7426;SDS011;3755;59.316;18.092;2022-09-28T12:53:45;1.58;;;1.30;;
7426;SDS011;3755;59.316;18.092;2022-09-28T12:56:32;2.33;;;1.13;;
7426;SDS011;3755;59.316;18.092;2022-09-28T13:08:36;3.78;;;1.58;;
7426;SDS011;3755;59.316;18.092;2022-09-28T13:11:25;5.78;;;1.30;;
7426;SDS011;3755;59.316;18.092;2022-09-28T13:14:44;2.47;;;1.15;;
7426;SDS011;3755;59.316;18.092;2022-09-28T13:17:52;2.95;;;1.50;;
7426;SDS011;3755;59.316;18.092;2022-09-28T13:20:37;1.67;;;1.30;;
7426;SDS011;3755;59.316;18.092;2022-09-28T13:23:38;1.83;;;1.40;;
7426;SDS011;3755;59.316;18.092;2022-09-28T13:26:11;2.70;;;1.30;;
7426;SDS011;3755;59.316;18.092;2022-09-28T13:29:04;3.85;;;1.60;;
7426;SDS011;3755;59.316;18.092;2022-09-28T13:31:40;4.47;;;1.33;;
7426;SDS011;3755;59.316;18.092;2022-09-28T13:34:20;2.70;;;1.17;;
7426;SDS011;3755;59.316;18.092;2022-09-28T13:37:08;4.25;;;1.23;;
7426;SDS011;3755;59.316;18.092;2022-09-28T13:40:04;1.73;;;0.90;;
7426;SDS011;3755;59.316;18.092;2022-09-28T13:42:53;4.97;;;1.55;;
7426;SDS011;3755;59.316;18.092;2022-09-28T13:48:52;3.90;;;2.00;;
7426;SDS011;3755;59.316;18.092;2022-09-28T13:52:27;1.42;;;1.17;;
7426;SDS011;3755;59.316;18.092;2022-09-28T13:55:16;1.70;;;1.27;;
7426;SDS011;3755;59.316;18.092;2022-09-28T13:57:54;2.15;;;1.33;;
7426;SDS011;3755;59.316;18.092;2022-09-28T14:00:29;3.00;;;1.17;;
7426;SDS011;3755;59.316;18.092;2022-09-28T14:03:09;3.60;;;1.50;;
7426;SDS011;3755;59.316;18.092;2022-09-28T14:06:07;3.80;;;1.05;;
7426;SDS011;3755;59.316;18.092;2022-09-28T14:09:21;1.63;;;1.25;;
7426;SDS011;3755;59.316;18.092;2022-09-28T14:11:54;1.60;;;1.20;;
7426;SDS011;3755;59.316;18.092;2022-09-28T14:14:46;3.05;;;1.45;;
7426;SDS011;3755;59.316;18.092;2022-09-28T14:20:24;1.85;;;1.25;;
7426;SDS011;3755;59.316;18.092;2022-09-28T14:29:31;2.42;;;1.65;;
7426;SDS011;3755;59.316;18.092;2022-09-28T14:32:03;1.42;;;0.90;;
7426;SDS011;3755;59.316;18.092;2022-09-28T14:34:46;1.85;;;1.45;;
7426;SDS011;3755;59.316;18.092;2022-09-28T14:37:20;3.08;;;1.27;;
7426;SDS011;3755;59.316;18.092;2022-09-28T14:40:16;2.30;;;1.30;;
7426;SDS011;3755;59.316;18.092;2022-09-28T14:49:47;2.47;;;1.30;;
7426;SDS011;3755;59.316;18.092;2022-09-28T14:52:37;1.80;;;1.25;;
7426;SDS011;3755;59.316;18.092;2022-09-28T14:55:10;2.10;;;1.40;;
7426;SDS011;3755;59.316;18.092;2022-09-28T14:57:41;2.05;;;1.30;;
7426;SDS011;3755;59.316;18.092;2022-09-28T15:00:14;2.53;;;1.40;;
7426;SDS011;3755;59.316;18.092;2022-09-28T15:02:55;2.60;;;1.40;;
7426;SDS011;3755;59.316;18.092;2022-09-28T15:05:31;3.65;;;1.38;;
7426;SDS011;3755;59.316;18.092;2022-09-28T15:08:04;3.30;;;1.95;;
7426;SDS011;3755;59.316;18.092;2022-09-28T15:10:33;1.77;;;1.42;;
7426;SDS011;3755;59.316;18.092;2022-09-28T15:13:15;5.25;;;1.60;;
7426;SDS011;3755;59.316;18.092;2022-09-28T15:16:02;4.05;;;1.33;;
7426;SDS011;3755;59.316;18.092;2022-09-28T15:18:47;2.28;;;1.48;;
7426;SDS011;3755;59.316;18.092;2022-09-28T15:24:43;2.83;;;1.00;;
7426;SDS011;3755;59.316;18.092;2022-09-28T15:27:33;4.82;;;1.80;;
7426;SDS011;3755;59.316;18.092;2022-09-28T15:30:25;4.20;;;1.98;;
7426;SDS011;3755;59.316;18.092;2022-09-28T15:33:21;3.35;;;1.88;;
7426;SDS011;3755;59.316;18.092;2022-09-28T15:36:14;3.00;;;1.70;;
7426;SDS011;3755;59.316;18.092;2022-09-28T15:39:02;2.15;;;1.52;;
7426;SDS011;3755;59.316;18.092;2022-09-28T15:41:32;1.40;;;1.27;;
7426;SDS011;3755;59.316;18.092;2022-09-28T15:44:24;2.33;;;1.40;;
7426;SDS011;3755;59.316;18.092;2022-09-28T15:50:27;3.40;;;1.27;;
7426;SDS011;3755;59.316;18.092;2022-09-28T15:53:20;1.90;;;1.70;;
7426;SDS011;3755;59.316;18.092;2022-09-28T16:02:39;2.40;;;1.10;;
7426;SDS011;3755;59.316;18.092;2022-09-28T16:06:06;1.83;;;1.50;;
7426;SDS011;3755;59.316;18.092;2022-09-28T16:08:50;3.83;;;1.85;;
7426;SDS011;3755;59.316;18.092;2022-09-28T16:11:19;1.70;;;1.30;;
7426;SDS011;3755;59.316;18.092;2022-09-28T16:14:14;3.28;;;1.60;;
7426;SDS011;3755;59.316;18.092;2022-09-28T16:17:20;3.78;;;1.38;;
7426;SDS011;3755;59.316;18.092;2022-09-28T16:23:14;1.92;;;1.40;;
7426;SDS011;3755;59.316;18.092;2022-09-28T16:26:03;4.78;;;1.58;;
7426;SDS011;3755;59.316;18.092;2022-09-28T16:28:46;2.30;;;1.50;;
7426;SDS011;3755;59.316;18.092;2022-09-28T16:31:48;2.78;;;1.45;;
7426;SDS011;3755;59.316;18.092;2022-09-28T16:34:35;3.50;;;1.65;;
7426;SDS011;3755;59.316;18.092;2022-09-28T16:37:25;2.67;;;1.50;;
7426;SDS011;3755;59.316;18.092;2022-09-28T16:40:10;4.00;;;1.70;;
7426;SDS011;3755;59.316;18.092;2022-09-28T16:42:56;3.22;;;1.50;;
7426;SDS011;3755;59.316;18.092;2022-09-28T16:45:42;2.93;;;1.63;;
7426;SDS011;3755;59.316;18.092;2022-09-28T16:48:39;1.70;;;1.38;;
7426;SDS011;3755;59.316;18.092;2022-09-28T16:51:36;3.85;;;1.63;;
7426;SDS011;3755;59.316;18.092;2022-09-28T16:54:24;3.13;;;1.35;;
7426;SDS011;3755;59.316;18.092;2022-09-28T16:57:47;3.35;;;1.48;;
7426;SDS011;3755;59.316;18.092;2022-09-28T17:00:52;5.25;;;2.20;;
7426;SDS011;3755;59.316;18.092;2022-09-28T17:03:20;1.92;;;1.73;;
7426;SDS011;3755;59.316;18.092;2022-09-28T17:05:49;5.47;;;2.03;;
7426;SDS011;3755;59.316;18.092;2022-09-28T17:08:33;2.42;;;1.67;;
7426;SDS011;3755;59.316;18.092;2022-09-28T17:11:18;4.43;;;2.40;;
7426;SDS011;3755;59.316;18.092;2022-09-28T17:14:17;2.45;;;2.08;;
7426;SDS011;3755;59.316;18.092;2022-09-28T17:16:59;2.72;;;2.08;;
7426;SDS011;3755;59.316;18.092;2022-09-28T17:19:47;3.53;;;2.33;;
7426;SDS011;3755;59.316;18.092;2022-09-28T17:22:31;3.08;;;2.35;;
7426;SDS011;3755;59.316;18.092;2022-09-28T17:25:13;3.20;;;2.00;;
7426;SDS011;3755;59.316;18.092;2022-09-28T17:28:00;4.03;;;2.25;;
7426;SDS011;3755;59.316;18.092;2022-09-28T17:30:43;3.60;;;2.00;;
7426;SDS011;3755;59.316;18.092;2022-09-28T17:33:25;3.28;;;2.40;;
7426;SDS011;3755;59.316;18.092;2022-09-28T17:35:57;2.10;;;1.88;;
7426;SDS011;3755;59.316;18.092;2022-09-28T17:38:40;3.70;;;2.77;;
7426;SDS011;3755;59.316;18.092;2022-09-28T17:41:09;3.15;;;2.15;;
7426;SDS011;3755;59.316;18.092;2022-09-28T17:46:54;4.93;;;2.60;;
7426;SDS011;3755;59.316;18.092;2022-09-28T17:49:28;4.55;;;3.00;;
7426;SDS011;3755;59.316;18.092;2022-09-28T17:52:08;4.45;;;2.35;;
7426;SDS011;3755;59.316;18.092;2022-09-28T17:54:52;4.43;;;2.70;;
7426;SDS011;3755;59.316;18.092;2022-09-28T17:57:22;5.32;;;2.50;;
7426;SDS011;3755;59.316;18.092;2022-09-28T17:59:52;4.53;;;2.85;;
7426;SDS011;3755;59.316;18.092;2022-09-28T18:02:27;11.13;;;2.60;;
7426;SDS011;3755;59.316;18.092;2022-09-28T18:05:13;5.10;;;2.55;;
7426;SDS011;3755;59.316;18.092;2022-09-28T18:08:19;6.80;;;2.03;;
7426;SDS011;3755;59.316;18.092;2022-09-28T18:11:02;5.63;;;3.15;;
7426;SDS011;3755;59.316;18.092;2022-09-28T18:13:46;6.40;;;2.83;;
7426;SDS011;3755;59.316;18.092;2022-09-28T18:16:43;7.28;;;2.97;;
7426;SDS011;3755;59.316;18.092;2022-09-28T18:25:55;4.57;;;3.17;;
7426;SDS011;3755;59.316;18.092;2022-09-28T18:29:11;5.40;;;3.28;;
7426;SDS011;3755;59.316;18.092;2022-09-28T18:31:42;9.15;;;3.03;;
7426;SDS011;3755;59.316;18.092;2022-09-28T18:34:19;2.45;;;2.22;;
7426;SDS011;3755;59.316;18.092;2022-09-28T18:36:49;5.25;;;3.30;;
7426;SDS011;3755;59.316;18.092;2022-09-28T18:39:33;7.00;;;3.87;;
7426;SDS011;3755;59.316;18.092;2022-09-28T18:42:25;9.23;;;3.70;;
7426;SDS011;3755;59.316;18.092;2022-09-28T18:45:22;5.53;;;2.73;;
7426;SDS011;3755;59.316;18.092;2022-09-28T18:48:04;4.00;;;2.00;;
7426;SDS011;3755;59.316;18.092;2022-09-28T18:50:45;3.80;;;2.37;;
7426;SDS011;3755;59.316;18.092;2022-09-28T18:53:18;3.42;;;2.58;;
7426;SDS011;3755;59.316;18.092;2022-09-28T18:55:49;5.65;;;2.95;;
7426;SDS011;3755;59.316;18.092;2022-09-28T18:58:40;3.08;;;1.90;;
7426;SDS011;3755;59.316;18.092;2022-09-28T19:01:45;3.67;;;2.03;;
7426;SDS011;3755;59.316;18.092;2022-09-28T19:04:32;2.40;;;1.92;;
7426;SDS011;3755;59.316;18.092;2022-09-28T19:10:12;5.55;;;2.45;;
7426;SDS011;3755;59.316;18.092;2022-09-28T19:12:57;5.40;;;2.67;;
7426;SDS011;3755;59.316;18.092;2022-09-28T19:19:21;13.65;;;3.25;;
7426;SDS011;3755;59.316;18.092;2022-09-28T19:22:48;12.07;;;4.65;;
7426;SDS011;3755;59.316;18.092;2022-09-28T19:25:19;13.40;;;5.53;;
7426;SDS011;3755;59.316;18.092;2022-09-28T19:27:48;29.80;;;8.70;;
7426;SDS011;3755;59.316;18.092;2022-09-28T19:30:30;24.13;;;9.82;;